KMDW

Chicago Midway International Airport

Chicago, Illinois, USA
METAR KMDW 241153Z 07015KT 7SM BKN011 OVC014 02/M01 A3019 RMK AO2 SLP231 T00171006 10022 20017 56015
Observed Flight Rules
Feb-24 @ 11:53 UTC (28 minutes ago) Marginal Visual Flight Rules
Wind Visibility Clouds
70° at 15 knots 7 miles
  • Broken at 1,100' AGL
  • Overcast at 1,400' AGL
Temperatures Readings
Current 2°C / 36°F
Dewpoint -1°C / 30°F
Humidity 81%
Altimeter 30.19" Hg
Pressure 1023.1 hPa
Elevation 188
METAR KMDW 241153Z 07015KT 7SM BKN011 OVC014 02/M01 A3019 RMK AO2 SLP231 T00171006 10022 20017 56015
Observed Flight Rules
Feb-24 @ 11:53 UTC
(28 minutes ago)
MVFR
Wind Visibility
70° at 15 knots 7 miles
Clouds
  • Broken at 1,100' AGL
  • Overcast at 1,400' AGL
Temperature Dewpoint
2°C / 36°F -1°C / 30°F
Humidity Altimeter Pressure
81% 30.19" Hg 1023.1 hPa